Time;durP1;ratioP1;P1;durP2;ratioP2;P2;SDS_P1;SDS_P2;PMS_P1;PMS_P2;Temp;Humidity;BMP_temperature;BMP_pressure;BME280_temperature;BME280_humidity;BME280_pressure;Samples;Min_cycle;Max_cycle;Signal;HPM_P1;HPM_P2
2022/07/26 00:01:23;;;;;;;1.58;1.10;;;20.80;99.90;;;;;;5062308;28;20127;-72
2022/07/26 00:03:50;;;;;;;1.67;1.25;;;20.80;99.90;;;;;;5056762;28;20031;-73
2022/07/26 00:06:15;;;;;;;1.85;1.27;;;20.90;99.90;;;;;;5050892;28;20031;-73
2022/07/26 00:08:41;;;;;;;1.75;1.20;;;21.00;99.90;;;;;;5050808;28;20133;-73
2022/07/26 00:11:06;;;;;;;1.67;1.35;;;21.00;99.90;;;;;;5057022;28;20021;-73
2022/07/26 00:13:32;;;;;;;2.50;1.45;;;21.00;99.90;;;;;;5057628;28;20036;-73
2022/07/26 00:15:58;;;;;;;2.33;1.48;;;21.00;99.90;;;;;;5053162;28;20119;-73
2022/07/26 00:18:23;;;;;;;2.45;1.88;;;21.00;99.90;;;;;;5054390;28;20114;-73
2022/07/26 00:20:49;;;;;;;1.73;1.00;;;20.90;99.90;;;;;;5050340;28;20300;-72
2022/07/26 00:23:15;;;;;;;1.17;1.08;;;20.90;99.90;;;;;;5062413;28;20033;-73
2022/07/26 00:25:40;;;;;;;1.35;1.25;;;20.80;99.90;;;;;;5055453;28;20163;-73
2022/07/26 00:28:06;;;;;;;3.13;1.50;;;20.80;99.90;;;;;;5064084;28;20054;-72
2022/07/26 00:30:33;;;;;;;1.65;1.50;;;20.80;99.90;;;;;;5054898;28;20028;-73
2022/07/26 00:32:58;;;;;;;1.50;1.27;;;20.80;99.90;;;;;;5064022;28;20036;-72
2022/07/26 00:35:24;;;;;;;1.67;1.42;;;20.80;99.90;;;;;;5061931;28;20020;-73
2022/07/26 00:37:50;;;;;;;3.72;1.50;;;20.80;99.90;;;;;;5053683;28;20115;-73
2022/07/26 00:40:16;;;;;;;1.65;1.10;;;20.80;99.90;;;;;;5059092;28;20435;-73
2022/07/26 00:42:41;;;;;;;2.40;1.77;;;20.80;99.90;;;;;;5045457;28;20561;-72
2022/07/26 00:45:09;;;;;;;2.03;1.48;;;20.80;99.90;;;;;;5056597;28;20055;-73
2022/07/26 00:47:35;;;;;;;5.80;2.80;;;20.70;99.90;;;;;;5051264;28;20083;-73
2022/07/26 00:50:01;;;;;;;1.33;1.23;;;20.60;99.90;;;;;;5064417;28;20606;-73
2022/07/26 00:52:26;;;;;;;2.75;1.92;;;20.60;99.90;;;;;;5060676;28;21346;-73
2022/07/26 00:54:54;;;;;;;2.08;1.30;;;20.70;99.90;;;;;;5047755;28;20033;-73
2022/07/26 00:57:21;;;;;;;6.88;2.40;;;20.60;99.90;;;;;;5051049;28;20078;-73
2022/07/26 00:59:47;;;;;;;1.30;1.17;;;20.60;99.90;;;;;;5055351;28;20523;-73
2022/07/26 01:02:13;;;;;;;1.92;1.33;;;20.60;99.90;;;;;;5059037;28;20067;-73
2022/07/26 01:04:43;;;;;;;3.08;2.10;;;20.60;99.90;;;;;;5055934;28;20021;-73
2022/07/26 01:07:08;;;;;;;2.08;1.52;;;20.50;99.90;;;;;;5057791;28;20028;-72
2022/07/26 01:09:34;;;;;;;1.60;1.30;;;20.50;99.90;;;;;;5052627;28;20025;-73
2022/07/26 01:12:00;;;;;;;5.03;1.90;;;20.60;99.90;;;;;;5059842;28;20056;-73
2022/07/26 01:14:26;;;;;;;1.52;1.42;;;20.60;99.90;;;;;;5053386;28;20064;-73
2022/07/26 01:16:51;;;;;;;1.90;1.30;;;20.60;99.90;;;;;;5054453;28;20686;-73
2022/07/26 01:19:18;;;;;;;1.58;1.30;;;20.60;99.90;;;;;;5057447;28;20090;-73
2022/07/26 01:21:44;;;;;;;1.73;1.42;;;20.60;99.90;;;;;;5055456;28;20029;-73
2022/07/26 01:24:10;;;;;;;2.33;1.38;;;20.60;99.90;;;;;;5066339;28;20023;-73
2022/07/26 01:26:36;;;;;;;2.42;1.60;;;20.60;99.90;;;;;;5053806;28;20276;-72
2022/07/26 01:29:02;;;;;;;2.00;1.80;;;20.50;99.90;;;;;;5049857;28;20037;-72
2022/07/26 01:31:28;;;;;;;3.67;1.67;;;20.50;99.90;;;;;;5051831;28;20107;-73
2022/07/26 01:33:53;;;;;;;2.63;2.10;;;20.60;99.90;;;;;;5053620;28;20113;-73
2022/07/26 01:36:19;;;;;;;1.58;1.48;;;20.50;99.90;;;;;;5056939;28;20028;-72
2022/07/26 01:38:44;;;;;;;3.45;2.15;;;20.50;99.90;;;;;;5056165;28;20016;-73
2022/07/26 01:41:10;;;;;;;3.30;2.10;;;20.50;99.90;;;;;;5051557;28;20044;-73
2022/07/26 01:43:36;;;;;;;3.33;2.70;;;20.50;99.90;;;;;;5054316;28;20445;-73
2022/07/26 01:46:02;;;;;;;2.05;1.85;;;20.50;99.90;;;;;;5052970;28;20024;-73
2022/07/26 01:48:29;;;;;;;3.63;2.22;;;20.50;99.90;;;;;;5056470;28;20025;-73
2022/07/26 01:50:54;;;;;;;4.38;2.03;;;20.50;99.90;;;;;;5053722;28;20028;-73
2022/07/26 01:53:19;;;;;;;3.35;2.55;;;20.50;99.90;;;;;;5055430;28;20025;-73
2022/07/26 01:55:45;;;;;;;1.95;1.65;;;20.50;99.90;;;;;;5057265;28;20131;-72
2022/07/26 01:58:11;;;;;;;2.40;2.17;;;20.50;99.90;;;;;;5053257;28;20398;-73
2022/07/26 02:00:36;;;;;;;4.65;2.03;;;20.50;99.90;;;;;;5048112;28;20083;-72
2022/07/26 02:03:02;;;;;;;2.05;1.85;;;20.40;99.90;;;;;;5060835;28;20120;-73
2022/07/26 02:05:27;;;;;;;2.70;1.95;;;20.30;99.90;;;;;;5050683;28;20397;-73
2022/07/26 02:07:53;;;;;;;3.20;1.95;;;20.30;99.90;;;;;;5046817;28;20032;-73
2022/07/26 02:10:18;;;;;;;2.85;2.03;;;20.30;99.90;;;;;;5052782;28;20028;-74
2022/07/26 02:12:44;;;;;;;3.13;2.40;;;20.30;99.90;;;;;;5050508;28;20020;-72
2022/07/26 02:15:11;;;;;;;5.35;2.30;;;20.30;99.90;;;;;;5057947;28;20772;-71
2022/07/26 02:17:36;;;;;;;2.60;2.13;;;20.20;99.90;;;;;;5053018;28;20087;-71
2022/07/26 02:20:03;;;;;;;3.20;2.10;;;20.20;99.90;;;;;;5064399;28;20066;-71
2022/07/26 02:22:28;;;;;;;3.78;3.00;;;20.30;99.90;;;;;;5047703;28;20028;-72
2022/07/26 02:24:54;;;;;;;3.13;2.67;;;20.10;99.90;;;;;;5055336;28;20188;-72
2022/07/26 02:27:20;;;;;;;3.65;2.83;;;20.00;99.90;;;;;;5060468;28;20028;-72
2022/07/26 02:29:45;;;;;;;3.47;2.40;;;20.00;99.90;;;;;;5059473;28;20013;-71
2022/07/26 02:32:11;;;;;;;4.03;2.20;;;20.00;99.90;;;;;;5047299;28;20038;-71
2022/07/26 02:34:36;;;;;;;2.95;2.33;;;19.90;99.90;;;;;;5061945;28;20166;-71
2022/07/26 02:37:02;;;;;;;3.63;2.35;;;19.90;99.90;;;;;;5058803;28;20021;-72
2022/07/26 02:39:28;;;;;;;2.67;1.92;;;19.90;99.90;;;;;;5049402;28;20494;-72
2022/07/26 02:41:55;;;;;;;2.53;1.83;;;19.80;99.90;;;;;;5046264;28;20495;-71
2022/07/26 02:44:21;;;;;;;2.80;2.00;;;19.90;99.90;;;;;;5050192;28;20027;-71
2022/07/26 02:46:47;;;;;;;5.00;3.08;;;19.90;99.90;;;;;;5057930;28;20024;-71
2022/07/26 02:49:12;;;;;;;3.40;2.42;;;19.80;99.90;;;;;;5061861;28;20035;-71
2022/07/26 02:51:38;;;;;;;4.75;1.92;;;19.80;99.90;;;;;;5061224;28;20527;-71
2022/07/26 02:54:03;;;;;;;2.28;1.75;;;19.70;99.90;;;;;;5059478;28;20395;-72
2022/07/26 02:56:29;;;;;;;2.70;2.33;;;19.70;99.90;;;;;;5055581;28;20372;-72
2022/07/26 02:58:54;;;;;;;3.90;2.13;;;19.70;99.90;;;;;;5057745;28;20020;-71
2022/07/26 03:01:20;;;;;;;2.83;2.25;;;19.60;99.90;;;;;;5052845;28;20046;-72
2022/07/26 03:03:46;;;;;;;3.28;2.22;;;19.60;99.90;;;;;;5066162;28;20036;-71
2022/07/26 03:06:12;;;;;;;2.25;1.77;;;19.70;99.90;;;;;;5059996;28;20186;-71
2022/07/26 03:08:37;;;;;;;2.58;2.00;;;19.60;99.90;;;;;;5062260;28;20553;-71
2022/07/26 03:11:04;;;;;;;2.75;2.08;;;19.60;99.90;;;;;;5059547;28;20025;-70
2022/07/26 03:13:29;;;;;;;3.97;2.10;;;19.50;99.90;;;;;;5053250;28;20036;-71
2022/07/26 03:15:55;;;;;;;2.35;2.00;;;19.50;99.90;;;;;;5051427;28;20503;-71
2022/07/26 03:18:20;;;;;;;3.03;2.05;;;19.50;99.90;;;;;;5064442;28;20270;-71
2022/07/26 03:20:46;;;;;;;2.95;1.65;;;19.50;99.90;;;;;;5059872;28;20480;-71
2022/07/26 03:23:12;;;;;;;3.08;2.10;;;19.40;99.90;;;;;;5061966;28;20021;-72
2022/07/26 03:25:37;;;;;;;2.08;1.73;;;19.40;99.90;;;;;;5048768;28;20028;-71
2022/07/26 03:28:03;;;;;;;2.53;1.95;;;19.40;99.90;;;;;;5058042;28;20039;-71
2022/07/26 03:30:29;;;;;;;3.08;2.05;;;19.30;99.90;;;;;;5066854;28;20028;-71
2022/07/26 03:32:54;;;;;;;4.85;2.05;;;19.30;99.90;;;;;;5059274;28;20059;-72
2022/07/26 03:35:20;;;;;;;2.10;1.67;;;19.30;99.90;;;;;;5051035;28;20229;-72
2022/07/26 03:37:45;;;;;;;4.90;2.70;;;19.30;99.90;;;;;;5063725;28;20020;-72
2022/07/26 03:40:11;;;;;;;2.42;1.92;;;19.20;99.90;;;;;;5059447;28;20039;-73
2022/07/26 03:42:37;;;;;;;4.07;2.05;;;19.20;99.90;;;;;;5058323;28;20475;-72
2022/07/26 03:45:03;;;;;;;2.20;1.80;;;19.30;99.90;;;;;;5050923;28;20021;-73
2022/07/26 03:47:29;;;;;;;4.22;2.17;;;19.20;99.90;;;;;;5048564;28;20051;-72
2022/07/26 03:49:54;;;;;;;3.70;2.03;;;19.30;99.90;;;;;;5058061;28;20009;-72
2022/07/26 03:52:20;;;;;;;2.20;1.50;;;19.30;99.90;;;;;;5055835;28;20048;-72
2022/07/26 03:54:45;;;;;;;2.20;1.80;;;19.20;99.90;;;;;;5060812;28;20479;-72
2022/07/26 03:57:11;;;;;;;3.35;1.77;;;19.20;99.90;;;;;;5059455;28;20028;-71
2022/07/26 03:59:36;;;;;;;2.10;1.80;;;19.30;99.90;;;;;;5057324;28;20039;-72
2022/07/26 04:02:02;;;;;;;2.85;1.65;;;19.30;99.90;;;;;;5054996;28;20095;-71
2022/07/26 04:04:28;;;;;;;1.75;1.58;;;19.30;99.90;;;;;;5057464;28;20111;-72
2022/07/26 04:06:55;;;;;;;5.55;1.85;;;19.20;99.90;;;;;;5063649;28;20107;-73
2022/07/26 04:09:20;;;;;;;2.97;1.90;;;19.30;99.90;;;;;;5059144;28;20054;-73
2022/07/26 04:11:47;;;;;;;3.55;1.80;;;19.30;99.90;;;;;;5062055;28;20028;-73
2022/07/26 04:14:13;;;;;;;3.80;1.83;;;19.30;99.90;;;;;;5056863;28;20149;-74
2022/07/26 04:16:38;;;;;;;1.45;1.35;;;19.30;99.90;;;;;;5053288;28;20419;-73
2022/07/26 04:19:04;;;;;;;1.77;1.60;;;19.20;99.90;;;;;;5046266;28;20059;-74
2022/07/26 04:21:30;;;;;;;2.58;1.80;;;19.20;99.90;;;;;;5057209;28;20020;-74
2022/07/26 04:23:55;;;;;;;1.30;1.17;;;19.30;99.90;;;;;;5055247;28;20032;-73
2022/07/26 04:26:21;;;;;;;2.75;1.90;;;19.30;99.90;;;;;;5061510;28;20702;-75
2022/07/26 04:28:46;;;;;;;2.22;1.63;;;19.20;99.90;;;;;;5059407;28;20024;-74
2022/07/26 04:31:12;;;;;;;4.00;1.55;;;19.20;99.90;;;;;;5052538;28;20028;-74
2022/07/26 04:33:38;;;;;;;1.48;1.17;;;19.10;99.90;;;;;;5053040;28;20033;-77
2022/07/26 04:36:04;;;;;;;2.33;1.70;;;19.10;99.90;;;;;;5056500;28;20162;-75
2022/07/26 04:38:29;;;;;;;1.90;1.40;;;19.10;99.90;;;;;;5060268;28;20048;-77
2022/07/26 04:40:56;;;;;;;2.03;1.40;;;19.00;99.90;;;;;;5054784;28;20119;-76
2022/07/26 04:43:22;;;;;;;4.00;1.77;;;19.10;99.90;;;;;;5057351;28;20077;-77
2022/07/26 04:45:48;;;;;;;2.50;1.40;;;19.10;99.90;;;;;;5064575;28;20051;-77
2022/07/26 04:48:14;;;;;;;7.18;1.42;;;19.10;99.90;;;;;;5063142;28;20024;-80
2022/07/26 04:50:40;;;;;;;2.47;1.80;;;19.00;99.90;;;;;;5051765;28;20008;-76
2022/07/26 04:53:06;;;;;;;1.65;1.45;;;19.20;99.90;;;;;;5061064;28;20057;-75
2022/07/26 04:55:31;;;;;;;3.03;1.67;;;19.20;99.90;;;;;;5055096;28;20067;-75
2022/07/26 04:57:57;;;;;;;3.45;1.70;;;19.30;99.90;;;;;;5056727;28;20068;-73
2022/07/26 05:00:23;;;;;;;4.20;2.00;;;19.40;99.90;;;;;;5052174;28;20052;-74
2022/07/26 05:02:55;;;;;;;1.90;1.45;;;19.40;99.90;;;;;;5052203;28;20086;-73
2022/07/26 05:05:22;;;;;;;1.67;1.58;;;19.40;99.90;;;;;;5044323;28;20112;-74
2022/07/26 05:07:50;;;;;;;2.10;1.60;;;19.40;99.90;;;;;;5048913;28;20027;-78
2022/07/26 05:10:17;;;;;;;1.50;1.35;;;19.40;99.90;;;;;;5056726;28;20050;-73
2022/07/26 05:12:44;;;;;;;2.58;1.40;;;19.30;99.90;;;;;;5052711;28;20032;-72
2022/07/26 05:15:10;;;;;;;1.60;1.50;;;19.30;99.90;;;;;;5053892;28;20463;-73
2022/07/26 05:17:42;;;;;;;1.90;1.48;;;19.30;99.90;;;;;;5054512;28;20033;-72
2022/07/26 05:20:11;;;;;;;4.10;1.30;;;19.30;99.90;;;;;;5060347;28;20056;-73
2022/07/26 05:22:37;;;;;;;2.47;1.45;;;19.20;99.90;;;;;;5060762;28;20442;-73
2022/07/26 05:25:04;;;;;;;1.95;1.20;;;19.30;99.90;;;;;;5058522;28;20137;-73
2022/07/26 05:27:30;;;;;;;2.30;1.88;;;19.30;99.90;;;;;;5058305;28;20025;-74
2022/07/26 05:29:55;;;;;;;5.20;1.20;;;19.40;99.90;;;;;;5057505;28;20023;-74
2022/07/26 05:32:22;;;;;;;0.82;0.80;;;19.40;99.90;;;;;;5052875;28;20433;-73
2022/07/26 05:34:47;;;;;;;1.85;1.20;;;19.50;99.90;;;;;;5050319;28;20123;-73
2022/07/26 05:37:13;;;;;;;3.55;1.10;;;19.40;99.90;;;;;;5054763;28;20086;-73
2022/07/26 05:39:39;;;;;;;1.20;1.10;;;19.40;99.90;;;;;;5051766;28;20031;-72
2022/07/26 05:42:05;;;;;;;4.38;1.40;;;19.40;99.90;;;;;;5054676;28;20510;-73
2022/07/26 05:44:30;;;;;;;1.60;1.13;;;19.50;99.90;;;;;;5053416;28;20100;-73
2022/07/26 05:46:56;;;;;;;1.48;1.38;;;19.50;99.90;;;;;;5054979;28;20460;-72
2022/07/26 05:49:21;;;;;;;1.58;1.20;;;19.60;99.90;;;;;;5061346;28;20021;-73
2022/07/26 05:51:47;;;;;;;2.95;1.35;;;19.60;99.90;;;;;;5056623;28;20081;-74
2022/07/26 05:54:12;;;;;;;0.77;0.73;;;19.70;99.90;;;;;;5054989;28;20032;-73
2022/07/26 05:56:38;;;;;;;3.53;1.70;;;19.70;99.90;;;;;;5053428;28;20025;-73
2022/07/26 05:59:04;;;;;;;174.50;54.15;;;19.70;99.90;;;;;;5058308;28;20400;-75
2022/07/26 06:01:31;;;;;;;6.43;1.50;;;19.80;99.90;;;;;;5070946;28;20055;-75
2022/07/26 06:03:57;;;;;;;3.17;2.00;;;20.00;99.90;;;;;;5057189;28;20021;-76
2022/07/26 06:06:23;;;;;;;2.03;1.42;;;20.00;99.90;;;;;;5055007;28;20064;-75
2022/07/26 06:08:52;;;;;;;1.92;1.20;;;20.00;99.90;;;;;;5053247;28;20056;-75
2022/07/26 06:11:17;;;;;;;1.38;0.90;;;20.10;99.90;;;;;;5055031;28;20025;-75
2022/07/26 06:13:43;;;;;;;1.10;0.98;;;20.10;99.90;;;;;;5044438;28;20021;-74
2022/07/26 06:16:08;;;;;;;0.98;0.98;;;20.10;99.90;;;;;;5057102;28;20115;-74
2022/07/26 06:18:34;;;;;;;1.40;1.05;;;20.00;99.90;;;;;;5058065;28;20511;-74
2022/07/26 06:20:59;;;;;;;2.22;1.23;;;20.00;99.90;;;;;;5057635;28;20028;-74
2022/07/26 06:23:25;;;;;;;1.52;1.20;;;20.00;99.90;;;;;;5058393;28;20028;-74
2022/07/26 06:25:50;;;;;;;1.00;0.90;;;20.10;99.90;;;;;;5061336;28;20055;-74
2022/07/26 06:28:16;;;;;;;3.65;1.73;;;20.10;99.90;;;;;;5050751;28;20025;-75
2022/07/26 06:30:43;;;;;;;29.70;9.60;;;20.10;99.90;;;;;;5055066;28;20124;-77
2022/07/26 06:33:09;;;;;;;1.88;1.15;;;20.10;99.90;;;;;;5051349;28;20576;-75
2022/07/26 06:35:36;;;;;;;1.10;0.82;;;20.20;99.90;;;;;;5053046;28;20028;-74
2022/07/26 06:38:02;;;;;;;4.20;1.00;;;20.20;99.90;;;;;;5049210;28;20392;-79
2022/07/26 06:40:27;;;;;;;0.85;0.80;;;20.20;99.90;;;;;;5056611;28;20048;-74
2022/07/26 06:42:53;;;;;;;1.98;1.20;;;20.10;99.90;;;;;;5055158;28;20063;-75
2022/07/26 06:45:18;;;;;;;0.73;0.73;;;20.10;99.90;;;;;;5063036;28;20024;-74
2022/07/26 06:47:44;;;;;;;1.33;0.88;;;20.10;99.90;;;;;;5057423;28;20542;-74
2022/07/26 06:50:10;;;;;;;3.90;1.15;;;20.10;99.90;;;;;;5063426;28;20048;-75
2022/07/26 06:52:35;;;;;;;1.73;0.75;;;20.10;99.90;;;;;;5058795;28;20090;-75
2022/07/26 06:55:02;;;;;;;1.52;1.27;;;20.10;99.90;;;;;;5050567;28;20028;-75
2022/07/26 06:57:27;;;;;;;3.15;0.95;;;20.10;99.90;;;;;;5061196;28;20025;-75
2022/07/26 06:59:53;;;;;;;2.88;1.30;;;20.20;99.90;;;;;;5058203;28;20843;-75
2022/07/26 07:02:19;;;;;;;1.15;1.00;;;20.10;99.90;;;;;;5054626;28;20440;-76
2022/07/26 07:04:45;;;;;;;5.88;1.30;;;20.20;99.90;;;;;;5062769;28;20052;-75
2022/07/26 07:07:10;;;;;;;0.98;0.80;;;20.20;99.90;;;;;;5055194;28;21397;-76
2022/07/26 07:09:36;;;;;;;1.73;0.90;;;20.20;99.90;;;;;;5059753;28;20111;-76
2022/07/26 07:12:02;;;;;;;1.40;0.98;;;20.40;99.90;;;;;;5058413;28;20044;-75
2022/07/26 07:14:28;;;;;;;2.97;0.85;;;20.50;99.90;;;;;;5050999;28;20169;-84
2022/07/26 07:16:54;;;;;;;2.13;0.80;;;20.40;99.90;;;;;;5060856;28;20356;-76
2022/07/26 07:19:20;;;;;;;0.85;0.80;;;20.50;99.90;;;;;;5061237;28;20042;-76
2022/07/26 07:21:45;;;;;;;2.33;0.80;;;20.60;99.90;;;;;;5063112;28;20107;-76
2022/07/26 07:24:11;;;;;;;0.88;0.88;;;20.60;99.90;;;;;;5055288;28;20036;-76
2022/07/26 07:26:36;;;;;;;3.22;1.30;;;20.50;99.90;;;;;;5058788;28;20100;-78
2022/07/26 07:29:02;;;;;;;0.93;0.90;;;20.70;99.90;;;;;;5056668;28;20029;-77
2022/07/26 07:31:27;;;;;;;1.75;1.05;;;20.70;99.90;;;;;;5060212;28;20024;-81
2022/07/26 07:33:53;;;;;;;1.33;0.85;;;21.00;99.90;;;;;;5053939;28;20535;-73
2022/07/26 07:36:19;;;;;;;1.45;1.35;;;21.20;99.90;;;;;;5061461;28;20086;-75
2022/07/26 07:38:44;;;;;;;0.70;0.70;;;21.10;99.90;;;;;;5052465;28;20035;-74
2022/07/26 07:41:10;;;;;;;1.92;0.80;;;21.10;99.90;;;;;;5062263;28;20396;-73
2022/07/26 07:43:35;;;;;;;2.22;0.80;;;21.00;99.90;;;;;;5058091;28;20123;-75
2022/07/26 07:46:01;;;;;;;1.00;0.90;;;21.10;99.90;;;;;;5053455;28;20047;-78
2022/07/26 07:48:26;;;;;;;3.05;1.15;;;21.10;99.90;;;;;;5062859;28;20124;-74
2022/07/26 07:50:52;;;;;;;1.92;1.00;;;21.30;99.90;;;;;;5062759;28;20028;-74
2022/07/26 07:53:17;;;;;;;0.98;0.90;;;21.60;99.90;;;;;;5066979;28;20037;-73
2022/07/26 07:55:43;;;;;;;2.70;1.00;;;21.90;99.90;;;;;;5060746;28;20036;-74
2022/07/26 07:58:08;;;;;;;0.60;0.60;;;22.20;99.90;;;;;;5055138;28;20036;-74
2022/07/26 08:00:34;;;;;;;0.75;0.75;;;22.40;99.00;;;;;;5051747;28;20090;-73
2022/07/26 08:02:59;;;;;;;0.70;0.70;;;22.50;97.90;;;;;;5059081;28;20125;-75
2022/07/26 08:05:25;;;;;;;1.70;1.13;;;22.50;98.10;;;;;;5049252;28;20021;-76
2022/07/26 08:07:50;;;;;;;2.28;0.85;;;22.50;98.20;;;;;;5063336;28;20463;-74
2022/07/26 08:10:16;;;;;;;0.80;0.70;;;22.40;96.70;;;;;;5059304;28;20033;-74
2022/07/26 08:12:41;;;;;;;2.83;0.90;;;22.30;97.20;;;;;;5055205;28;20040;-76
2022/07/26 08:15:07;;;;;;;0.90;0.73;;;22.10;98.20;;;;;;5056556;28;20479;-76
2022/07/26 08:17:33;;;;;;;1.63;0.47;;;22.10;98.00;;;;;;5062036;28;20531;-77
2022/07/26 08:19:59;;;;;;;1.00;0.80;;;22.00;99.10;;;;;;5059042;28;20128;-75
2022/07/26 08:22:24;;;;;;;2.05;1.02;;;21.90;99.70;;;;;;5062531;28;20134;-75
2022/07/26 08:24:51;;;;;;;1.77;1.15;;;21.90;99.10;;;;;;5073087;28;20666;-75
2022/07/26 08:27:20;;;;;;;1.00;0.80;;;21.80;99.20;;;;;;5052070;28;20016;-75
2022/07/26 08:29:46;;;;;;;0.50;0.50;;;21.70;99.20;;;;;;5052982;28;20027;-75
2022/07/26 08:32:11;;;;;;;2.17;0.98;;;21.50;99.60;;;;;;5060535;28;20132;-75
2022/07/26 08:34:37;;;;;;;1.33;1.00;;;21.40;99.90;;;;;;5061749;28;20471;-75
2022/07/26 08:37:02;;;;;;;2.13;0.85;;;21.60;99.90;;;;;;5051883;28;20021;-76
2022/07/26 08:39:28;;;;;;;0.60;0.60;;;21.80;99.90;;;;;;5059131;28;20039;-75
2022/07/26 08:41:53;;;;;;;0.60;0.60;;;22.00;98.80;;;;;;5051013;28;20438;-76
2022/07/26 08:44:19;;;;;;;1.55;0.90;;;22.20;97.70;;;;;;5065530;28;20021;-76
2022/07/26 08:46:44;;;;;;;0.60;0.60;;;22.40;97.80;;;;;;5061601;28;20073;-75
2022/07/26 08:49:11;;;;;;;1.48;0.80;;;22.50;96.60;;;;;;5062494;28;20024;-75
2022/07/26 08:51:39;;;;;;;1.00;0.85;;;22.60;95.00;;;;;;5051650;28;20029;-75
2022/07/26 08:54:05;;;;;;;0.90;0.85;;;22.60;94.30;;;;;;5047647;28;20056;-75
2022/07/26 08:56:31;;;;;;;0.70;0.70;;;22.40;93.30;;;;;;5060265;28;20513;-75
2022/07/26 08:58:57;;;;;;;0.80;0.80;;;22.30;92.50;;;;;;5058894;28;20020;-75
2022/07/26 09:01:22;;;;;;;0.70;0.70;;;22.50;92.80;;;;;;5052412;28;20154;-76
2022/07/26 09:03:48;;;;;;;0.77;0.60;;;22.60;92.50;;;;;;5061037;28;20540;-74
2022/07/26 09:06:14;;;;;;;3.40;1.48;;;22.70;92.40;;;;;;5060212;28;20460;-74
2022/07/26 09:08:40;;;;;;;1.17;0.90;;;22.70;92.30;;;;;;5060235;28;20048;-74
2022/07/26 09:11:26;;;;;;;0.80;0.80;;;22.90;92.40;;;;;;5053607;28;20487;-74
2022/07/26 09:14:04;;;;;;;1.00;0.85;;;22.90;92.90;;;;;;5057144;28;20028;-74
2022/07/26 09:16:30;;;;;;;0.70;0.70;;;23.10;91.80;;;;;;5061226;28;20032;-73
2022/07/26 09:19:14;;;;;;;0.63;0.43;;;23.20;91.00;;;;;;5062210;28;20584;-75
2022/07/26 09:21:40;;;;;;;0.80;0.40;;;23.10;91.80;;;;;;5054945;28;20049;-74
2022/07/26 09:24:05;;;;;;;2.90;1.10;;;22.90;91.30;;;;;;5058636;28;20148;-74
2022/07/26 09:26:31;;;;;;;0.77;0.52;;;22.70;91.90;;;;;;5057889;28;20028;-74
2022/07/26 09:29:08;;;;;;;0.80;0.80;;;22.60;91.60;;;;;;5056343;28;20025;-75
2022/07/26 09:31:36;;;;;;;1.60;0.80;;;22.60;92.50;;;;;;5053691;28;20024;-75
2022/07/26 09:34:03;;;;;;;5.78;0.90;;;22.60;92.10;;;;;;5063783;28;20989;-75
2022/07/26 09:36:29;;;;;;;0.60;0.60;;;22.70;92.70;;;;;;5047973;28;20102;-74
2022/07/26 09:39:04;;;;;;;1.23;0.70;;;23.00;91.20;;;;;;5057586;28;20098;-74
2022/07/26 09:41:30;;;;;;;0.60;0.60;;;23.40;90.60;;;;;;5059038;28;20466;-74
2022/07/26 09:43:59;;;;;;;0.75;0.75;;;23.50;89.90;;;;;;5059798;28;20056;-75
2022/07/26 09:46:26;;;;;;;1.45;0.80;;;23.60;88.80;;;;;;5056317;28;20081;-75
2022/07/26 09:48:54;;;;;;;1.52;0.68;;;24.00;85.80;;;;;;5059210;28;20034;-75
2022/07/26 09:51:39;;;;;;;1.92;0.77;;;24.00;86.30;;;;;;5057001;28;20246;-74
2022/07/26 09:54:05;;;;;;;1.08;1.00;;;24.10;85.30;;;;;;5058919;28;20032;-75
2022/07/26 09:56:49;;;;;;;0.80;0.77;;;24.10;83.90;;;;;;5049641;28;20122;-76
2022/07/26 09:59:20;;;;;;;0.65;0.65;;;23.90;84.20;;;;;;5060854;28;20067;-77
2022/07/26 10:01:46;;;;;;;0.88;0.88;;;23.80;82.90;;;;;;5057520;28;20494;-80
2022/07/26 10:04:14;;;;;;;0.70;0.70;;;23.80;85.70;;;;;;5047296;28;20645;-76
2022/07/26 10:06:40;;;;;;;0.60;0.60;;;23.90;84.30;;;;;;5049284;28;20552;-74
2022/07/26 10:09:07;;;;;;;0.80;0.80;;;23.90;82.90;;;;;;5056191;28;20491;-75
2022/07/26 10:11:49;;;;;;;1.05;0.90;;;24.30;81.50;;;;;;5061938;28;20479;-76
2022/07/26 10:14:37;;;;;;;0.95;0.80;;;24.40;79.80;;;;;;5057434;28;20067;-76
2022/07/26 10:17:27;;;;;;;1.27;1.05;;;24.50;81.30;;;;;;5055314;28;20383;-75
2022/07/26 10:19:54;;;;;;;0.60;0.60;;;24.50;80.10;;;;;;5054038;28;20512;-76
2022/07/26 10:22:32;;;;;;;0.65;0.65;;;24.50;80.40;;;;;;5052993;28;20112;-76
2022/07/26 10:25:16;;;;;;;0.98;0.90;;;24.50;79.50;;;;;;5055615;28;20021;-76
2022/07/26 10:27:48;;;;;;;0.70;0.70;;;24.20;80.30;;;;;;5058449;28;20077;-77
2022/07/26 10:30:22;;;;;;;1.08;0.85;;;24.00;81.80;;;;;;5048181;28;20025;-76
2022/07/26 10:32:51;;;;;;;0.70;0.70;;;23.80;83.20;;;;;;5057087;28;20025;-77
2022/07/26 10:35:43;;;;;;;2.08;0.93;;;23.80;84.00;;;;;;5046586;28;20017;-77
2022/07/26 10:38:23;;;;;;;1.17;0.80;;;23.80;84.90;;;;;;5045317;28;20066;-77
2022/07/26 10:41:01;;;;;;;1.67;1.03;;;23.80;82.20;;;;;;5050951;28;20434;-77
2022/07/26 10:43:27;;;;;;;1.42;1.10;;;23.60;83.50;;;;;;5045525;28;20029;-76
2022/07/26 10:46:17;;;;;;;0.90;0.90;;;23.40;85.10;;;;;;5055680;28;20433;-76
2022/07/26 10:49:02;;;;;;;1.27;0.82;;;23.50;85.60;;;;;;5050466;28;20060;-77
2022/07/26 10:51:31;;;;;;;0.80;0.80;;;24.00;86.40;;;;;;5054023;28;20101;-76
2022/07/26 10:54:03;;;;;;;1.20;0.82;;;24.60;82.70;;;;;;5056058;28;20033;-76
2022/07/26 10:56:29;;;;;;;;;;;25.00;79.40;;;;;;5056349;28;20108;-76
2022/07/26 10:58:54;;;;;;;1.27;0.77;;;25.20;77.60;;;;;;5057903;28;20061;-77
2022/07/26 11:01:20;;;;;;;0.90;0.68;;;25.50;76.00;;;;;;5052867;28;20083;-77
2022/07/26 11:03:46;;;;;;;1.45;0.70;;;25.30;75.60;;;;;;5051276;28;20085;-77
2022/07/26 11:06:16;;;;;;;0.85;0.85;;;25.40;73.70;;;;;;5057307;28;20032;-77
2022/07/26 11:08:44;;;;;;;3.53;0.70;;;25.40;75.20;;;;;;5058891;28;20036;-77
2022/07/26 11:11:10;;;;;;;2.28;0.93;;;25.60;72.90;;;;;;5053539;28;20036;-76
2022/07/26 11:13:36;;;;;;;1.23;1.13;;;25.60;74.20;;;;;;5054301;28;20029;-76
2022/07/26 11:16:04;;;;;;;1.20;0.93;;;25.60;77.70;;;;;;5055307;28;20511;-76
2022/07/26 11:18:38;;;;;;;0.60;0.60;;;25.70;73.50;;;;;;5054633;28;20119;-77
2022/07/26 11:21:13;;;;;;;0.90;0.90;;;25.60;72.80;;;;;;5060264;28;20482;-77
2022/07/26 11:23:42;;;;;;;2.03;0.90;;;25.40;74.90;;;;;;5055932;28;20466;-76
2022/07/26 11:26:11;;;;;;;1.20;0.88;;;25.30;75.60;;;;;;5057655;28;20028;-75
2022/07/26 11:28:44;;;;;;;0.63;0.63;;;24.70;72.40;;;;;;5051983;28;20025;-76
2022/07/26 11:31:09;;;;;;;1.63;0.80;;;24.40;74.90;;;;;;5053944;28;20029;-75
2022/07/26 11:33:36;;;;;;;0.90;0.90;;;24.40;75.50;;;;;;5057180;28;20039;-82
2022/07/26 11:36:03;;;;;;;0.95;0.85;;;24.30;76.10;;;;;;5060787;28;20402;-76
2022/07/26 11:38:50;;;;;;;2.17;1.38;;;24.40;75.90;;;;;;5059998;28;20631;-73
2022/07/26 11:41:24;;;;;;;2.15;0.80;;;24.30;76.30;;;;;;5046737;28;20071;-82
2022/07/26 11:43:51;;;;;;;0.90;0.80;;;24.30;77.10;;;;;;5064240;28;20028;-75
2022/07/26 11:46:17;;;;;;;2.78;0.93;;;24.20;78.20;;;;;;5058570;28;20100;-73
2022/07/26 11:48:46;;;;;;;3.22;1.15;;;24.00;77.90;;;;;;5055459;28;20112;-72
2022/07/26 11:51:20;;;;;;;2.15;1.20;;;23.90;78.50;;;;;;5049971;28;20392;-76
2022/07/26 11:53:46;;;;;;;0.80;0.80;;;24.10;78.10;;;;;;5046474;28;20056;-72
2022/07/26 11:56:18;;;;;;;1.40;1.13;;;24.60;78.80;;;;;;5053093;28;20067;-74
2022/07/26 11:58:47;;;;;;;1.30;1.17;;;24.90;76.60;;;;;;5059349;28;20032;-73
2022/07/26 12:01:15;;;;;;;1.73;0.85;;;25.10;75.50;;;;;;5052337;28;20051;-75
2022/07/26 12:03:43;;;;;;;1.25;1.05;;;25.40;77.00;;;;;;5058515;28;20038;-74
2022/07/26 12:06:12;;;;;;;1.00;0.90;;;25.90;72.50;;;;;;5051765;28;20399;-74
2022/07/26 12:08:38;;;;;;;0.85;0.80;;;25.90;70.10;;;;;;5056990;28;20021;-75
2022/07/26 12:11:04;;;;;;;0.80;0.80;;;25.70;68.50;;;;;;5050856;28;20052;-81
2022/07/26 12:13:30;;;;;;;0.68;0.60;;;25.60;70.70;;;;;;5057343;28;20117;-73
2022/07/26 12:15:55;;;;;;;1.60;0.73;;;25.30;75.70;;;;;;5056954;28;20028;-75
2022/07/26 12:18:25;;;;;;;0.63;0.63;;;25.20;80.70;;;;;;5054415;28;20039;-73
2022/07/26 12:20:59;;;;;;;0.73;0.73;;;24.70;81.80;;;;;;5049756;28;20175;-75
2022/07/26 12:23:25;;;;;;;0.88;0.85;;;24.20;83.90;;;;;;5053491;28;20024;-74
2022/07/26 12:25:50;;;;;;;4.70;0.88;;;23.70;87.00;;;;;;5052178;28;20025;-75
2022/07/26 12:28:36;;;;;;;3.90;0.80;;;23.40;88.60;;;;;;5055617;28;20021;-74
2022/07/26 12:31:01;;;;;;;3.20;0.80;;;23.20;90.70;;;;;;5060376;28;20033;-74
2022/07/26 12:33:27;;;;;;;0.85;0.73;;;22.70;91.00;;;;;;5054339;28;20016;-72
2022/07/26 12:35:56;;;;;;;0.68;0.68;;;22.30;93.10;;;;;;5059481;28;20067;-72
2022/07/26 12:38:39;;;;;;;0.80;0.80;;;21.80;96.60;;;;;;5057273;28;20494;-74
2022/07/26 12:41:04;;;;;;;3.00;1.20;;;21.40;99.90;;;;;;5053531;28;20029;-75
2022/07/26 12:43:38;;;;;;;0.82;0.60;;;21.00;99.90;;;;;;5053880;28;20386;-71
2022/07/26 12:46:04;;;;;;;1.05;0.70;;;20.50;99.90;;;;;;5048623;28;20082;-71
2022/07/26 12:48:29;;;;;;;0.88;0.75;;;20.40;99.90;;;;;;5055868;28;20390;-71